createdAt,value
2022-08-03T00:03:09.135Z,4233
2022-08-03T00:08:21.331Z,4233
2022-08-03T00:13:33.639Z,4216
2022-08-03T00:18:47.033Z,4231
2022-08-03T00:24:02.209Z,4231
2022-08-03T00:29:14.699Z,4190
2022-08-03T00:34:30.967Z,4229
2022-08-03T00:39:39.738Z,4166
2022-08-03T00:44:51.979Z,4227
2022-08-03T00:50:04.145Z,4231
2022-08-03T00:55:16.599Z,4207
2022-08-03T01:00:28.972Z,4198
2022-08-03T01:05:41.252Z,4188
2022-08-03T01:10:53.778Z,4211
2022-08-03T01:16:06.208Z,4229
2022-08-03T01:21:18.525Z,4227
2022-08-03T01:26:30.926Z,4216
2022-08-03T01:32:52.274Z,4190
2022-08-03T01:36:55.714Z,4199
2022-08-03T01:42:08.130Z,4173
2022-08-03T01:47:20.488Z,4179
2022-08-03T01:52:32.758Z,4211
2022-08-03T01:58:04.527Z,4207
2022-08-03T02:02:57.847Z,4220
2022-08-03T02:08:10.242Z,4207
2022-08-03T02:13:22.585Z,4207
2022-08-03T02:18:34.755Z,4196
2022-08-03T02:23:50.277Z,4205
2022-08-03T02:29:02.458Z,4205
2022-08-03T02:34:14.788Z,4205
2022-08-03T02:39:27.160Z,4222
2022-08-03T02:44:39.475Z,4190
2022-08-03T02:49:52.619Z,4216
2022-08-03T02:55:04.270Z,4185
2022-08-03T03:00:19.313Z,4203
2022-08-03T03:05:53.983Z,4181
2022-08-03T03:10:41.107Z,4186
2022-08-03T03:15:53.541Z,4203
2022-08-03T03:21:05.851Z,4216
2022-08-03T03:26:18.279Z,4173
2022-08-03T03:31:30.624Z,4214
2022-08-03T03:36:43.087Z,4194
2022-08-03T03:41:55.406Z,4183
2022-08-03T03:47:07.677Z,4175
2022-08-03T03:52:19.915Z,4175
2022-08-03T03:57:32.272Z,4177
2022-08-03T04:02:44.659Z,4196
2022-08-03T04:07:56.984Z,4158
2022-08-03T04:13:11.953Z,4190
2022-08-03T04:18:24.587Z,4190
2022-08-03T04:23:37.107Z,4190
2022-08-03T04:28:49.557Z,4192
2022-08-03T04:34:01.847Z,4168
2022-08-03T04:39:14.483Z,4205
2022-08-03T04:44:28.240Z,4170
2022-08-03T04:49:39.592Z,4177
2022-08-03T04:54:51.969Z,4142
2022-08-03T05:00:04.394Z,4153
2022-08-03T05:05:16.830Z,4132
2022-08-03T05:10:29.045Z,4134
2022-08-03T05:15:43.114Z,4110
2022-08-03T05:20:54.002Z,4099
2022-08-03T05:26:06.545Z,4168
2022-08-03T05:31:19.046Z,4181
2022-08-03T05:36:31.354Z,4127
2022-08-03T05:41:43.894Z,4164
2022-08-03T05:46:56.462Z,4084
2022-08-03T05:52:09.329Z,4162
2022-08-03T05:57:21.203Z,4132
2022-08-03T06:02:33.826Z,4138
2022-08-03T06:07:46.222Z,4177
2022-08-03T06:12:58.859Z,4155
2022-08-03T06:18:11.088Z,4101
2022-08-03T06:23:26.350Z,4153
2022-08-03T06:28:52.083Z,4142
2022-08-03T06:34:31.863Z,4198
2022-08-03T06:39:00.813Z,4123
2022-08-03T06:49:25.703Z,4118
2022-08-03T06:54:37.890Z,4155
2022-08-03T07:00:06.876Z,4131
2022-08-03T07:05:02.851Z,4106
2022-08-03T07:10:15.362Z,4147
2022-08-03T07:15:38.466Z,4138
2022-08-03T07:20:40.304Z,4196
2022-08-03T07:25:52.787Z,4170
2022-08-03T07:31:05.202Z,4171
2022-08-03T07:36:17.595Z,4196
2022-08-03T07:41:30.035Z,4145
2022-08-03T07:46:42.436Z,4132
2022-08-03T07:51:54.856Z,4129
2022-08-03T07:57:07.204Z,4127
2022-08-03T08:02:19.610Z,4132
2022-08-03T08:07:32.038Z,4093
2022-08-03T08:12:44.575Z,4147
2022-08-03T08:17:57.078Z,4093
2022-08-03T08:23:10.289Z,4149
2022-08-03T08:34:01.294Z,4144
2022-08-03T08:38:49.354Z,4103
2022-08-03T08:44:01.829Z,4155
2022-08-03T08:49:14.275Z,4166
2022-08-03T08:54:26.461Z,4127
2022-08-03T08:59:48.093Z,4168
2022-08-03T09:10:10.728Z,4192
2022-08-03T09:15:17.357Z,4147
2022-08-03T09:20:28.768Z,4149
2022-08-03T09:25:41.082Z,4166
2022-08-03T09:30:53.294Z,4168
2022-08-03T09:36:05.907Z,4173
2022-08-03T09:41:18.567Z,4145
2022-08-03T09:46:33.580Z,4149
2022-08-03T09:52:30.334Z,4134
2022-08-03T09:56:58.415Z,4125
2022-08-03T10:02:10.855Z,4158
2022-08-03T10:07:23.374Z,4145
2022-08-03T10:12:35.669Z,4188
2022-08-03T10:17:48.425Z,4216
2022-08-03T10:23:00.836Z,4222
2022-08-03T10:28:15.730Z,4205
2022-08-03T10:33:50.577Z,4181
2022-08-03T10:38:40.696Z,4192
2022-08-03T10:43:53.183Z,4240
2022-08-03T10:49:05.378Z,4231
2022-08-03T10:54:17.709Z,4209
2022-08-03T10:59:30.272Z,4251
2022-08-03T11:04:42.691Z,4229
2022-08-03T11:09:54.985Z,4198
2022-08-03T11:15:07.508Z,4203
2022-08-03T11:20:19.684Z,4238
2022-08-03T11:25:34.711Z,4264
2022-08-03T11:30:44.416Z,4216
2022-08-03T11:41:09.358Z,4279
2022-08-03T11:46:28.334Z,4285
2022-08-03T11:51:34.545Z,4274
2022-08-03T11:56:47.041Z,4300
2022-08-03T12:01:59.471Z,4274
2022-08-03T12:07:11.591Z,4300
2022-08-03T12:12:24.024Z,4298
2022-08-03T12:22:49.489Z,4250
2022-08-03T12:28:01.640Z,4268
2022-08-03T12:33:13.956Z,4285
2022-08-03T12:38:26.349Z,4274
2022-08-03T12:43:39.791Z,4287
2022-08-03T12:48:54.140Z,4263
2022-08-03T12:54:06.661Z,4302
2022-08-03T13:04:31.747Z,4270
2022-08-03T13:09:44.098Z,4283
2022-08-03T13:14:58.994Z,4272
2022-08-03T13:20:11.204Z,4253
2022-08-03T13:25:24.238Z,4278
2022-08-03T13:30:36.577Z,4287
2022-08-03T13:35:49.215Z,4272
2022-08-03T13:41:01.417Z,4289
2022-08-03T13:46:13.811Z,4285
2022-08-03T13:51:26.919Z,4292
2022-08-03T13:56:38.585Z,4302
2022-08-03T14:01:55.154Z,4270
2022-08-03T14:07:03.278Z,4266
2022-08-03T14:12:15.751Z,4283
2022-08-03T14:17:28.000Z,4268
2022-08-03T14:22:40.313Z,4244
2022-08-03T14:27:52.653Z,4261
2022-08-03T14:33:04.827Z,4270
2022-08-03T14:38:17.086Z,4302
2022-08-03T14:43:33.918Z,4283
2022-08-03T14:50:10.565Z,4302
2022-08-03T14:53:54.462Z,4270
2022-08-03T14:59:06.672Z,4264
2022-08-03T15:04:18.810Z,4266
2022-08-03T15:09:30.993Z,4274
2022-08-03T15:14:43.255Z,4279
2022-08-03T15:19:59.951Z,4264
2022-08-03T15:26:02.703Z,4259
2022-08-03T15:30:20.530Z,4296
2022-08-03T15:35:32.511Z,4257
2022-08-03T15:40:45.373Z,4274
2022-08-03T15:51:10.730Z,4278
2022-08-03T15:56:25.806Z,4292
2022-08-03T16:01:37.700Z,4270
2022-08-03T16:06:49.880Z,4292
2022-08-03T16:12:02.021Z,4292
2022-08-03T16:17:14.290Z,4251
2022-08-03T16:22:26.721Z,4292
2022-08-03T16:28:00.577Z,4264
2022-08-03T16:32:51.289Z,4268
2022-08-03T16:38:07.959Z,4253
2022-08-03T16:43:18.076Z,4229
2022-08-03T16:48:28.430Z,4270
2022-08-03T16:54:02.664Z,4276
2022-08-03T16:58:52.983Z,4263
2022-08-03T17:04:05.224Z,4276
2022-08-03T17:09:18.322Z,4257
2022-08-03T17:14:30.341Z,4296
2022-08-03T17:19:42.474Z,4291
2022-08-03T17:24:54.494Z,4259
2022-08-03T17:30:07.660Z,4285
2022-08-03T17:35:18.630Z,4302
2022-08-03T17:40:31.061Z,4279
2022-08-03T17:45:52.623Z,4244
2022-08-03T17:50:55.784Z,4235
2022-08-03T17:56:40.618Z,4251
2022-08-03T18:01:59.153Z,4257
2022-08-03T18:06:33.777Z,4268
2022-08-03T18:11:45.826Z,4259
2022-08-03T18:16:58.020Z,4292
2022-08-03T18:22:10.241Z,4274
2022-08-03T18:27:22.527Z,4270
2022-08-03T18:32:34.819Z,4222
2022-08-03T18:37:51.732Z,4216
2022-08-03T18:42:59.356Z,4216
2022-08-03T18:48:11.537Z,4220
2022-08-03T18:53:23.867Z,4251
2022-08-03T18:58:36.202Z,4257
2022-08-03T19:03:48.223Z,4266
2022-08-03T19:09:06.455Z,4268
2022-08-03T19:14:18.828Z,4281
2022-08-03T19:19:43.749Z,4214
2022-08-03T19:24:43.875Z,4227
2022-08-03T19:29:58.297Z,4261
2022-08-03T19:35:09.428Z,4278
2022-08-03T19:40:23.508Z,4196
2022-08-03T19:46:05.553Z,4237
2022-08-03T19:50:48.541Z,4142
2022-08-03T19:56:00.655Z,4222
2022-08-03T20:01:19.089Z,4207
2022-08-03T20:06:25.508Z,4255
2022-08-03T20:11:43.797Z,4264
2022-08-03T20:16:50.493Z,4248
2022-08-03T20:22:02.909Z,4225
2022-08-03T20:27:15.126Z,4186
2022-08-03T20:32:27.373Z,4244
2022-08-03T20:37:42.951Z,4264
2022-08-03T20:42:55.290Z,4244
2022-08-03T20:48:07.708Z,4242
2022-08-03T20:53:45.724Z,4229
2022-08-03T20:58:32.228Z,4214
2022-08-03T21:03:52.211Z,4183
2022-08-03T21:08:56.989Z,4190
2022-08-03T21:14:09.420Z,4240
2022-08-03T21:19:21.529Z,4168
2022-08-03T21:24:34.153Z,4242
2022-08-03T21:29:52.773Z,4093
2022-08-03T21:34:58.623Z,4162
2022-08-03T21:40:10.850Z,4207
2022-08-03T21:45:23.165Z,4222
2022-08-03T22:02:22.874Z,4207
2022-08-03T22:07:27.604Z,4235
2022-08-03T22:12:40.139Z,4211
2022-08-03T22:17:54.304Z,4201
2022-08-03T22:23:04.787Z,4211
2022-08-03T22:28:17.090Z,4214
2022-08-03T22:33:29.516Z,4216
2022-08-03T22:38:42.343Z,4201
2022-08-03T22:43:54.691Z,4240
2022-08-03T22:49:06.897Z,4237
2022-08-03T22:54:19.001Z,4244
2022-08-03T22:59:39.422Z,4194
2022-08-03T23:04:43.786Z,4201
2022-08-03T23:09:56.000Z,4222
2022-08-03T23:15:08.436Z,4177
2022-08-03T23:20:25.011Z,4218
2022-08-03T23:25:39.534Z,4216
2022-08-03T23:30:48.057Z,4138
2022-08-03T23:36:09.253Z,4218
2022-08-03T23:41:12.606Z,4235
2022-08-03T23:46:24.824Z,4212
2022-08-03T23:51:36.954Z,4201
2022-08-03T23:56:49.275Z,4229
